createdAt,value
2022-10-13T00:00:19.130Z,68.05
2022-10-13T00:01:19.173Z,67.96
2022-10-13T00:02:19.453Z,68.05
2022-10-13T00:03:19.111Z,68.15
2022-10-13T00:04:19.096Z,68.05
2022-10-13T00:05:19.100Z,68.05
2022-10-13T00:06:19.115Z,67.96
2022-10-13T00:07:19.084Z,68.15
2022-10-13T00:08:19.081Z,68.24
2022-10-13T00:09:19.080Z,68.15
2022-10-13T00:10:19.081Z,67.86
2022-10-13T00:11:19.075Z,68.53
2022-10-13T00:12:19.454Z,68.15
2022-10-13T00:13:19.075Z,68.15
2022-10-13T00:14:19.070Z,68.15
2022-10-13T00:15:19.074Z,67.96
2022-10-13T00:16:19.089Z,68.15
2022-10-13T00:17:19.063Z,67.96
2022-10-13T00:18:19.062Z,67.96
2022-10-13T00:19:19.058Z,67.96
2022-10-13T00:20:19.044Z,68.24
2022-10-13T00:21:19.043Z,68.05
2022-10-13T00:22:19.454Z,68.34
2022-10-13T00:23:19.033Z,68.24
2022-10-13T00:24:19.044Z,68.15
2022-10-13T00:25:19.040Z,68.05
2022-10-13T00:26:19.054Z,68.24
2022-10-13T00:27:19.034Z,68.05
2022-10-13T00:28:19.098Z,68.15
2022-10-13T00:29:19.025Z,68.05
2022-10-13T00:30:19.016Z,68.05
2022-10-13T00:31:19.013Z,67.96
2022-10-13T00:32:19.416Z,67.86
2022-10-13T00:33:19.003Z,68.24
2022-10-13T00:34:19.003Z,68.34
2022-10-13T00:35:19.000Z,68.34
2022-10-13T00:36:18.994Z,68.05
2022-10-13T00:37:18.999Z,68.05
2022-10-13T00:38:18.988Z,67.86
2022-10-13T00:39:18.985Z,68.05
2022-10-13T00:40:18.998Z,68.15
2022-10-13T00:41:18.985Z,68.05
2022-10-13T00:42:19.385Z,67.86
2022-10-13T00:43:18.969Z,68.15
2022-10-13T00:44:18.971Z,68.05
2022-10-13T00:45:19.009Z,68.24
2022-10-13T00:46:18.975Z,67.96
2022-10-13T00:47:18.960Z,68.15
2022-10-13T00:48:18.976Z,68.05
2022-10-13T00:49:18.966Z,67.96
2022-10-13T00:50:18.958Z,68.05
2022-10-13T00:51:18.955Z,68.05
2022-10-13T00:52:19.325Z,67.96
2022-10-13T00:53:18.944Z,68.24
2022-10-13T00:54:18.948Z,67.96
2022-10-13T00:55:18.944Z,68.24
2022-10-13T00:56:18.937Z,68.15
2022-10-13T00:57:18.940Z,68.24
2022-10-13T00:58:18.927Z,67.96
2022-10-13T00:59:18.928Z,68.15
2022-10-13T01:00:18.924Z,68.05
2022-10-13T01:01:18.918Z,67.96
2022-10-13T01:02:19.295Z,67.76
2022-10-13T01:03:18.912Z,68.05
2022-10-13T01:04:18.923Z,68.24
2022-10-13T01:05:18.913Z,67.96
2022-10-13T01:06:23.454Z,68.05
2022-10-13T01:07:18.922Z,67.96
2022-10-13T01:08:18.903Z,67.96
2022-10-13T01:09:18.890Z,68.24
2022-10-13T01:10:18.890Z,68.53
2022-10-13T01:11:18.885Z,68.24
2022-10-13T01:12:19.129Z,67.96
2022-10-13T01:13:18.895Z,68.05
2022-10-13T01:14:18.883Z,68.15
2022-10-13T01:15:18.932Z,68.24
2022-10-13T01:16:18.880Z,67.96
2022-10-13T01:17:18.874Z,67.86
2022-10-13T01:18:18.872Z,68.15
2022-10-13T01:19:18.865Z,67.96
2022-10-13T01:20:18.884Z,68.15
2022-10-13T01:21:18.866Z,68.24
2022-10-13T01:22:19.162Z,67.96
2022-10-13T01:23:18.854Z,68.05
2022-10-13T01:24:18.844Z,67.86
2022-10-13T01:25:18.859Z,68.24
2022-10-13T01:26:18.849Z,68.05
2022-10-13T01:27:18.848Z,68.05
2022-10-13T01:28:18.882Z,68.24
2022-10-13T01:29:18.835Z,68.05
2022-10-13T01:30:18.904Z,68.05
2022-10-13T01:31:18.829Z,67.96
2022-10-13T01:32:19.129Z,68.24
2022-10-13T01:33:18.827Z,68.05
2022-10-13T01:34:18.826Z,68.15
2022-10-13T01:35:18.822Z,67.96
2022-10-13T01:36:18.854Z,68.05
2022-10-13T01:37:18.820Z,68.34
2022-10-13T01:38:18.807Z,68.05
2022-10-13T01:39:18.798Z,67.96
2022-10-13T01:40:18.799Z,67.86
2022-10-13T01:41:18.795Z,68.15
2022-10-13T01:42:19.152Z,68.24
2022-10-13T01:43:18.791Z,67.96
2022-10-13T01:44:18.786Z,68.05
2022-10-13T01:45:18.795Z,68.05
2022-10-13T01:46:18.789Z,67.96
2022-10-13T01:47:18.779Z,68.05
2022-10-13T01:48:18.770Z,67.96
2022-10-13T01:49:18.778Z,67.96
2022-10-13T01:50:18.775Z,67.96
2022-10-13T01:51:18.767Z,68.24
2022-10-13T01:52:19.136Z,68.15
2022-10-13T01:53:18.753Z,68.05
2022-10-13T01:54:18.766Z,68.24
2022-10-13T01:55:18.761Z,68.24
2022-10-13T01:56:18.757Z,68.24
2022-10-13T01:57:18.746Z,68.15
2022-10-13T01:58:18.747Z,68.34
2022-10-13T01:59:18.755Z,68.15
2022-10-13T02:00:18.741Z,68.05
2022-10-13T02:01:18.728Z,67.96
2022-10-13T02:02:19.277Z,68.15
2022-10-13T02:03:18.732Z,68.24
2022-10-13T02:04:18.730Z,67.96
2022-10-13T02:05:18.728Z,67.96
2022-10-13T02:06:18.721Z,68.24
2022-10-13T02:07:18.718Z,68.15
2022-10-13T02:08:18.737Z,68.15
2022-10-13T02:09:18.714Z,68.24
2022-10-13T02:10:18.700Z,68.05
2022-10-13T02:11:18.709Z,67.96
2022-10-13T02:12:18.926Z,68.15
2022-10-13T02:13:18.695Z,68.05
2022-10-13T02:14:18.708Z,68.05
2022-10-13T02:15:18.691Z,68.05
2022-10-13T02:16:18.690Z,68.24
2022-10-13T02:17:18.684Z,68.05
2022-10-13T02:18:18.688Z,68.05
2022-10-13T02:19:18.675Z,68.34
2022-10-13T02:20:18.669Z,68.05
2022-10-13T02:21:18.671Z,68.05
2022-10-13T02:22:19.142Z,68.05
2022-10-13T02:23:18.672Z,68.05
2022-10-13T02:24:18.731Z,67.86
2022-10-13T02:25:18.661Z,68.21
2022-10-13T02:26:18.663Z,68.44
2022-10-13T02:27:18.651Z,68.24
2022-10-13T02:28:18.672Z,68.15
2022-10-13T02:29:18.645Z,68.24
2022-10-13T02:30:18.657Z,68.34
2022-10-13T02:31:18.637Z,68.24
2022-10-13T02:32:19.453Z,68.15
2022-10-13T02:33:18.638Z,68.24
2022-10-13T02:34:18.631Z,68.05
2022-10-13T02:35:18.626Z,68.15
2022-10-13T02:36:18.618Z,68.15
2022-10-13T02:37:18.644Z,67.96
2022-10-13T02:38:18.615Z,68.24
2022-10-13T02:39:18.619Z,67.86
2022-10-13T02:40:18.627Z,68.05
2022-10-13T02:41:18.615Z,68.15
2022-10-13T02:42:19.199Z,67.96
2022-10-13T02:43:18.600Z,67.96
2022-10-13T02:44:18.607Z,68.05
2022-10-13T02:45:18.615Z,68.05
2022-10-13T02:46:18.593Z,68.34
2022-10-13T02:47:18.593Z,68.05
2022-10-13T02:48:18.584Z,68.05
2022-10-13T02:49:18.581Z,68.02
2022-10-13T02:50:18.576Z,68.02
2022-10-13T02:51:18.583Z,67.86
2022-10-13T02:52:18.864Z,68.15
2022-10-13T02:53:18.571Z,67.96
2022-10-13T02:54:18.568Z,68.05
2022-10-13T02:55:18.577Z,68.05
2022-10-13T02:56:18.579Z,68.12
2022-10-13T02:57:18.563Z,67.83
2022-10-13T02:58:18.550Z,68.12
2022-10-13T02:59:18.549Z,68.02
2022-10-13T03:00:18.563Z,68.21
2022-10-13T03:01:18.547Z,68.24
2022-10-13T03:02:19.126Z,68.05
2022-10-13T03:03:18.533Z,68.24
2022-10-13T03:04:18.534Z,68.21
2022-10-13T03:05:18.544Z,68.02
2022-10-13T03:06:18.528Z,68.02
2022-10-13T03:07:18.534Z,68.02
2022-10-13T03:08:18.525Z,68.02
2022-10-13T03:09:18.521Z,68.02
2022-10-13T03:10:18.520Z,68.05
2022-10-13T03:11:18.520Z,68.05
2022-10-13T03:12:19.040Z,68.05
2022-10-13T03:13:18.611Z,68.21
2022-10-13T03:14:18.556Z,68.02
2022-10-13T03:15:18.501Z,68.05
2022-10-13T03:16:18.496Z,68.34
2022-10-13T03:17:18.489Z,68.05
2022-10-13T03:18:18.494Z,68.30
2022-10-13T03:19:18.495Z,68.30
2022-10-13T03:20:18.494Z,68.21
2022-10-13T03:21:18.497Z,68.02
2022-10-13T03:22:18.849Z,68.21
2022-10-13T03:23:18.491Z,68.15
2022-10-13T03:24:18.482Z,68.24
2022-10-13T03:25:18.486Z,68.05
2022-10-13T03:26:18.461Z,68.15
2022-10-13T03:27:18.473Z,68.05
2022-10-13T03:28:18.563Z,68.21
2022-10-13T03:29:18.463Z,68.02
2022-10-13T03:30:18.458Z,68.02
2022-10-13T03:31:18.449Z,68.30
2022-10-13T03:32:18.916Z,67.96
2022-10-13T03:33:18.450Z,67.96
2022-10-13T03:34:18.451Z,68.02
2022-10-13T03:35:18.444Z,67.83
2022-10-13T03:36:18.440Z,68.05
2022-10-13T03:37:18.436Z,68.15
2022-10-13T03:38:18.434Z,68.15
2022-10-13T03:39:18.423Z,68.02
2022-10-13T03:40:18.423Z,68.24
2022-10-13T03:41:18.416Z,67.86
2022-10-13T03:42:18.904Z,68.02
2022-10-13T03:43:18.411Z,68.21
2022-10-13T03:44:18.426Z,68.24
2022-10-13T03:45:18.448Z,68.15
2022-10-13T03:46:18.413Z,68.02
2022-10-13T03:47:18.400Z,68.21
2022-10-13T03:48:18.411Z,68.15
2022-10-13T03:49:18.396Z,68.15
2022-10-13T03:50:18.391Z,67.92
2022-10-13T03:51:18.394Z,68.24
2022-10-13T03:52:18.809Z,67.92
2022-10-13T03:53:18.381Z,68.34
2022-10-13T03:54:18.376Z,67.96
2022-10-13T03:55:18.428Z,67.96
2022-10-13T03:56:18.375Z,68.05
2022-10-13T03:57:18.380Z,67.96
2022-10-13T03:58:18.364Z,67.96
2022-10-13T03:59:18.369Z,68.15
2022-10-13T04:00:18.379Z,68.15
2022-10-13T04:01:18.426Z,68.05
2022-10-13T04:02:18.741Z,68.02
2022-10-13T04:03:18.355Z,68.15
2022-10-13T04:04:18.358Z,67.83
2022-10-13T04:05:18.382Z,68.05
2022-10-13T04:06:18.359Z,68.24
2022-10-13T04:07:18.384Z,68.24
2022-10-13T04:08:18.397Z,67.86
2022-10-13T04:09:18.392Z,68.02
2022-10-13T04:10:18.363Z,68.15
2022-10-13T04:11:18.363Z,68.12
2022-10-13T04:12:20.865Z,68.02
2022-10-13T04:13:18.360Z,68.34
2022-10-13T04:14:18.366Z,68.21
2022-10-13T04:15:18.320Z,67.92
2022-10-13T04:16:18.377Z,68.05
2022-10-13T04:17:18.322Z,68.02
2022-10-13T04:18:18.308Z,68.05
2022-10-13T04:19:18.312Z,68.24
2022-10-13T04:20:18.292Z,68.15
2022-10-13T04:21:18.300Z,67.83
2022-10-13T04:22:18.864Z,68.15
2022-10-13T04:23:18.290Z,68.15
2022-10-13T04:24:18.278Z,68.15
2022-10-13T04:25:18.282Z,68.02
2022-10-13T04:26:18.286Z,68.21
2022-10-13T04:27:18.270Z,68.30
2022-10-13T04:28:18.321Z,68.02
2022-10-13T04:29:18.268Z,67.83
2022-10-13T04:30:18.259Z,68.12
2022-10-13T04:31:18.266Z,68.05
2022-10-13T04:32:18.615Z,68.05
2022-10-13T04:33:18.266Z,68.02
2022-10-13T04:34:18.257Z,68.21
2022-10-13T04:35:18.250Z,68.24
2022-10-13T04:36:18.302Z,68.02
2022-10-13T04:37:18.249Z,68.21
2022-10-13T04:38:18.253Z,68.05
2022-10-13T04:39:18.233Z,68.21
2022-10-13T04:40:18.235Z,68.02
2022-10-13T04:41:18.230Z,68.02
2022-10-13T04:42:18.619Z,68.02
2022-10-13T04:43:18.239Z,68.12
2022-10-13T04:44:18.224Z,68.12
2022-10-13T04:45:18.220Z,68.12
2022-10-13T04:46:18.217Z,68.12
2022-10-13T04:47:18.206Z,67.92
2022-10-13T04:48:18.228Z,68.02
2022-10-13T04:49:18.206Z,68.30
2022-10-13T04:50:18.204Z,67.92
2022-10-13T04:51:18.201Z,68.02
2022-10-13T04:52:18.504Z,68.21
2022-10-13T04:53:19.288Z,67.92
2022-10-13T04:54:18.204Z,68.21
2022-10-13T04:55:18.203Z,67.92
2022-10-13T04:56:18.176Z,68.34
2022-10-13T04:57:18.176Z,68.40
2022-10-13T04:58:18.181Z,67.96
2022-10-13T04:59:18.183Z,68.02
2022-10-13T05:00:18.164Z,67.92
2022-10-13T05:01:21.811Z,67.92
2022-10-13T05:02:18.485Z,67.92
2022-10-13T05:03:18.162Z,67.92
2022-10-13T05:04:18.178Z,68.50
2022-10-13T05:05:18.147Z,68.02
2022-10-13T05:06:18.143Z,68.21
2022-10-13T05:07:18.736Z,67.92
2022-10-13T05:08:18.153Z,68.12
2022-10-13T05:09:18.140Z,67.92
2022-10-13T05:10:18.140Z,68.21
2022-10-13T05:11:18.145Z,68.30
2022-10-13T05:12:18.412Z,68.21
2022-10-13T05:13:18.132Z,68.21
2022-10-13T05:14:18.272Z,68.12
2022-10-13T05:15:18.120Z,68.02
2022-10-13T05:16:18.121Z,68.02
2022-10-13T05:17:18.117Z,68.21
2022-10-13T05:18:18.121Z,68.21
2022-10-13T05:19:18.114Z,68.02
2022-10-13T05:20:18.131Z,68.21
2022-10-13T05:21:18.105Z,68.24
2022-10-13T05:22:18.466Z,68.12
2022-10-13T05:23:18.099Z,68.21
2022-10-13T05:24:18.087Z,68.34
2022-10-13T05:25:18.097Z,67.63
2022-10-13T05:26:18.120Z,67.76
2022-10-13T05:27:18.083Z,67.96
2022-10-13T05:28:18.140Z,68.24
2022-10-13T05:29:18.075Z,68.05
2022-10-13T05:30:18.074Z,67.76
2022-10-13T05:31:18.081Z,67.67
2022-10-13T05:32:18.516Z,67.19
2022-10-13T05:33:18.074Z,67.47
2022-10-13T05:34:18.066Z,67.57
2022-10-13T05:35:18.059Z,67.57
2022-10-13T05:36:18.077Z,67.00
2022-10-13T05:37:18.060Z,67.38
2022-10-13T05:38:20.440Z,67.41
2022-10-13T05:39:18.057Z,66.74
2022-10-13T05:40:18.055Z,66.84
2022-10-13T05:41:18.052Z,67.03
2022-10-13T05:42:18.490Z,66.74
2022-10-13T05:43:18.034Z,66.84
2022-10-13T05:44:18.031Z,66.93
2022-10-13T05:45:18.039Z,66.64
2022-10-13T05:46:18.034Z,66.64
2022-10-13T05:47:18.028Z,66.36
2022-10-13T05:48:18.029Z,66.07
2022-10-13T05:49:18.076Z,66.26
2022-10-13T05:50:18.018Z,66.46
2022-10-13T05:51:18.030Z,66.49
2022-10-13T05:52:18.431Z,66.58
2022-10-13T05:53:18.016Z,66.49
2022-10-13T05:54:18.009Z,66.49
2022-10-13T05:55:18.011Z,66.49
2022-10-13T05:56:18.007Z,66.20
2022-10-13T05:57:17.997Z,66.10
2022-10-13T05:58:18.004Z,66.00
2022-10-13T05:59:17.996Z,65.62
2022-10-13T06:00:18.003Z,65.81
2022-10-13T06:01:18.001Z,66.10
2022-10-13T06:02:18.297Z,66.00
2022-10-13T06:03:17.995Z,66.00
2022-10-13T06:04:18.016Z,65.81
2022-10-13T06:05:17.988Z,65.81
2022-10-13T06:06:17.983Z,66.10
2022-10-13T06:07:17.975Z,65.72
2022-10-13T06:08:17.989Z,66.00
2022-10-13T06:09:17.997Z,66.30
2022-10-13T06:10:17.974Z,65.91
2022-10-13T06:11:17.975Z,65.91
2022-10-13T06:12:18.232Z,65.91
2022-10-13T06:13:17.970Z,65.91
2022-10-13T06:14:17.969Z,66.00
2022-10-13T06:15:17.969Z,65.81
2022-10-13T06:16:17.964Z,66.58
2022-10-13T06:17:17.963Z,66.77
2022-10-13T06:18:17.963Z,66.77
2022-10-13T06:19:17.955Z,66.39
2022-10-13T06:20:18.042Z,66.49
2022-10-13T06:21:17.950Z,66.58
2022-10-13T06:22:18.450Z,66.30
2022-10-13T06:23:17.948Z,66.39
2022-10-13T06:24:17.962Z,66.49
2022-10-13T06:25:17.970Z,66.39
2022-10-13T06:26:18.228Z,66.20
2022-10-13T06:27:17.940Z,66.39
2022-10-13T06:28:17.983Z,66.30
2022-10-13T06:29:17.940Z,66.68
2022-10-13T06:30:17.933Z,66.58
2022-10-13T06:31:17.935Z,66.68
2022-10-13T06:32:18.291Z,66.87
2022-10-13T06:33:17.919Z,66.58
2022-10-13T06:34:17.923Z,66.58
2022-10-13T06:35:17.916Z,66.87
2022-10-13T06:36:17.920Z,66.97
2022-10-13T06:37:17.912Z,66.68
2022-10-13T06:38:17.924Z,66.87
2022-10-13T06:39:17.913Z,66.87
2022-10-13T06:40:17.935Z,67.07
2022-10-13T06:41:17.902Z,67.07
2022-10-13T06:42:18.579Z,66.97
2022-10-13T06:43:17.904Z,67.07
2022-10-13T06:44:17.899Z,67.54
2022-10-13T06:45:17.917Z,66.77
2022-10-13T06:46:17.895Z,67.35
2022-10-13T06:47:17.895Z,67.45
2022-10-13T06:48:17.898Z,67.45
2022-10-13T06:49:17.897Z,67.35
2022-10-13T06:50:17.892Z,67.25
2022-10-13T06:51:17.885Z,67.07
2022-10-13T06:52:18.205Z,67.07
2022-10-13T06:53:17.880Z,67.16
2022-10-13T06:54:17.886Z,67.16
2022-10-13T06:55:17.882Z,67.07
2022-10-13T06:56:17.891Z,67.07
2022-10-13T06:57:17.884Z,67.07
2022-10-13T06:58:17.874Z,67.74
2022-10-13T06:59:17.871Z,67.54
2022-10-13T07:00:17.874Z,67.83
2022-10-13T07:01:17.865Z,67.54
2022-10-13T07:02:18.259Z,67.83
2022-10-13T07:03:17.875Z,67.74
2022-10-13T07:04:17.861Z,67.54
2022-10-13T07:05:17.858Z,67.64
2022-10-13T07:06:17.867Z,67.64
2022-10-13T07:07:17.853Z,67.45
2022-10-13T07:08:17.851Z,67.41
2022-10-13T07:09:17.843Z,67.45
2022-10-13T07:10:17.852Z,67.64
2022-10-13T07:11:17.875Z,67.45
2022-10-13T07:12:18.447Z,67.64
2022-10-13T07:13:17.879Z,67.45
2022-10-13T07:14:17.845Z,67.54
2022-10-13T07:15:17.835Z,67.64
2022-10-13T07:16:17.823Z,67.83
2022-10-13T07:17:18.159Z,67.83
2022-10-13T07:18:17.826Z,67.70
2022-10-13T07:19:17.876Z,68.21
2022-10-13T07:20:17.815Z,68.12
2022-10-13T07:21:17.825Z,68.08
2022-10-13T07:22:17.820Z,67.93
2022-10-13T07:23:17.813Z,67.83
2022-10-13T07:24:17.805Z,67.93
2022-10-13T07:25:17.805Z,67.70
2022-10-13T07:26:17.820Z,67.99
2022-10-13T07:27:17.803Z,68.31
2022-10-13T07:28:17.885Z,67.90
2022-10-13T07:29:17.795Z,67.80
2022-10-13T07:30:17.813Z,67.80
2022-10-13T07:31:17.799Z,67.90
2022-10-13T07:32:17.792Z,67.90
2022-10-13T07:33:17.791Z,67.99
2022-10-13T07:34:17.789Z,68.08
2022-10-13T07:35:17.788Z,68.18
2022-10-13T07:36:17.781Z,67.99
2022-10-13T07:37:18.297Z,67.70
2022-10-13T07:38:17.789Z,67.80
2022-10-13T07:39:17.779Z,67.80
2022-10-13T07:40:17.769Z,67.90
2022-10-13T07:41:17.768Z,67.90
2022-10-13T07:42:17.771Z,67.61
2022-10-13T07:43:17.778Z,67.70
2022-10-13T07:44:17.790Z,67.61
2022-10-13T07:45:17.788Z,67.80
2022-10-13T07:46:17.751Z,67.80
2022-10-13T07:47:18.091Z,67.80
2022-10-13T07:48:17.904Z,68.28
2022-10-13T07:49:17.814Z,67.70
2022-10-13T07:50:17.745Z,68.37
2022-10-13T07:51:17.744Z,68.37
2022-10-13T07:52:18.184Z,68.47
2022-10-13T07:53:17.743Z,68.28
2022-10-13T07:54:17.750Z,68.18
2022-10-13T07:55:17.735Z,68.37
2022-10-13T07:56:17.725Z,68.28
2022-10-13T07:57:17.742Z,68.28
2022-10-13T07:58:17.733Z,68.08
2022-10-13T07:59:17.727Z,68.08
2022-10-13T08:00:17.734Z,68.08
2022-10-13T08:01:17.828Z,68.18
2022-10-13T08:02:18.048Z,68.18
2022-10-13T08:03:17.718Z,68.28
2022-10-13T08:04:17.708Z,68.08
2022-10-13T08:05:17.776Z,68.28
2022-10-13T08:06:17.716Z,68.28
2022-10-13T08:07:17.976Z,68.28
2022-10-13T08:08:17.705Z,68.18
2022-10-13T08:09:17.712Z,68.28
2022-10-13T08:10:17.700Z,68.28
2022-10-13T08:11:17.756Z,68.18
2022-10-13T08:12:18.159Z,68.08
2022-10-13T08:13:17.687Z,68.28
2022-10-13T08:14:17.710Z,68.18
2022-10-13T08:15:17.692Z,68.18
2022-10-13T08:16:17.716Z,68.18
2022-10-13T08:17:18.007Z,68.08
2022-10-13T08:18:17.673Z,67.99
2022-10-13T08:19:17.672Z,68.28
2022-10-13T08:20:17.678Z,68.28
2022-10-13T08:22:17.680Z,68.28
2022-10-13T08:23:17.659Z,67.99
2022-10-13T08:24:17.673Z,68.08
2022-10-13T08:25:17.710Z,68.08
2022-10-13T08:26:17.666Z,68.18
2022-10-13T08:27:18.148Z,68.57
2022-10-13T08:28:17.741Z,68.08
2022-10-13T08:29:22.048Z,68.18
2022-10-13T08:30:17.689Z,68.18
2022-10-13T08:31:17.844Z,68.28
2022-10-13T08:32:18.034Z,68.08
2022-10-13T08:33:17.661Z,68.08
2022-10-13T08:34:17.635Z,68.08
2022-10-13T08:35:17.635Z,68.08
2022-10-13T08:36:17.636Z,68.18
2022-10-13T08:37:17.632Z,68.37
2022-10-13T08:38:17.635Z,68.08
2022-10-13T08:39:17.627Z,67.99
2022-10-13T08:40:17.661Z,67.99
2022-10-13T08:41:17.620Z,68.57
2022-10-13T08:42:17.998Z,68.08
2022-10-13T08:43:17.610Z,68.18
2022-10-13T08:46:17.603Z,68.18
2022-10-13T08:47:17.608Z,68.18
2022-10-13T08:48:17.625Z,68.28
2022-10-13T08:49:17.597Z,68.47
2022-10-13T08:50:17.699Z,68.18
2022-10-13T08:51:17.595Z,68.28
2022-10-13T08:52:17.907Z,68.28
2022-10-13T08:53:17.598Z,68.08
2022-10-13T08:54:17.587Z,68.37
2022-10-13T08:55:17.582Z,68.66
2022-10-13T08:56:17.598Z,68.28
2022-10-13T08:57:17.808Z,68.28
2022-10-13T08:58:17.580Z,68.37
2022-10-13T08:59:17.600Z,68.37
2022-10-13T09:00:17.580Z,68.37
2022-10-13T09:01:17.663Z,68.57
2022-10-13T09:02:17.583Z,68.66
2022-10-13T09:03:17.565Z,68.66
2022-10-13T09:04:17.627Z,68.37
2022-10-13T09:05:17.600Z,68.28
2022-10-13T09:06:17.596Z,68.37
2022-10-13T09:07:17.844Z,68.37
2022-10-13T09:08:17.616Z,68.37
2022-10-13T09:09:17.571Z,68.18
2022-10-13T09:10:17.552Z,68.37
2022-10-13T09:11:17.563Z,68.47
2022-10-13T09:12:17.986Z,68.37
2022-10-13T09:13:17.590Z,68.28
2022-10-13T09:14:17.545Z,68.28
2022-10-13T09:15:17.529Z,68.57
2022-10-13T09:16:17.566Z,68.85
2022-10-13T09:17:17.567Z,68.57
2022-10-13T09:18:17.525Z,68.66
2022-10-13T09:19:17.529Z,68.57
2022-10-13T09:20:17.549Z,68.66
2022-10-13T09:21:17.522Z,68.76
2022-10-13T09:22:17.780Z,68.66
2022-10-13T09:23:17.533Z,68.66
2022-10-13T09:24:17.522Z,68.57
2022-10-13T09:25:17.511Z,68.76
2022-10-13T09:26:17.533Z,68.57
2022-10-13T09:27:17.514Z,68.66
2022-10-13T09:28:17.568Z,68.57
2022-10-13T09:29:17.581Z,68.57
2022-10-13T09:30:17.500Z,68.57
2022-10-13T09:31:17.493Z,68.57
2022-10-13T09:32:17.744Z,68.76
2022-10-13T09:33:17.503Z,68.57
2022-10-13T09:34:17.496Z,68.57
2022-10-13T09:35:17.489Z,68.76
2022-10-13T09:36:17.514Z,68.85
2022-10-13T09:37:17.478Z,68.66
2022-10-13T09:38:17.516Z,68.66
2022-10-13T09:39:17.515Z,68.66
2022-10-13T09:40:17.469Z,68.76
2022-10-13T09:41:17.473Z,68.76
2022-10-13T09:42:17.893Z,68.76
2022-10-13T09:43:17.466Z,68.57
2022-10-13T09:44:17.471Z,68.76
2022-10-13T09:45:17.483Z,68.57
2022-10-13T09:46:17.470Z,68.57
2022-10-13T09:47:17.453Z,68.76
2022-10-13T09:48:17.459Z,68.57
2022-10-13T09:49:17.455Z,68.57
2022-10-13T09:50:17.443Z,68.76
2022-10-13T09:51:17.441Z,68.57
2022-10-13T09:52:17.742Z,68.57
2022-10-13T09:53:17.448Z,68.76
2022-10-13T09:54:17.442Z,68.66
2022-10-13T09:55:17.430Z,68.47
2022-10-13T09:56:17.431Z,68.85
2022-10-13T09:57:17.427Z,68.66
2022-10-13T09:58:17.437Z,68.66
2022-10-13T09:59:17.421Z,68.47
2022-10-13T10:00:17.428Z,68.66
2022-10-13T10:01:17.417Z,68.76
2022-10-13T10:02:19.432Z,68.85
2022-10-13T10:03:17.414Z,68.85
2022-10-13T10:04:17.465Z,68.85
2022-10-13T10:05:17.422Z,68.85
2022-10-13T10:06:17.413Z,68.76
2022-10-13T10:07:17.769Z,68.37
2022-10-13T10:08:17.419Z,68.85
2022-10-13T10:09:17.413Z,68.37
2022-10-13T10:10:17.405Z,68.95
2022-10-13T10:11:17.402Z,68.85
2022-10-13T10:12:17.401Z,69.05
2022-10-13T10:13:17.439Z,68.95
2022-10-13T10:14:17.389Z,68.66
2022-10-13T10:15:17.389Z,69.05
2022-10-13T10:16:17.398Z,68.66
2022-10-13T10:17:17.735Z,68.57
2022-10-13T10:18:17.378Z,68.66
2022-10-13T10:19:17.379Z,68.66
2022-10-13T10:20:17.382Z,68.66
2022-10-13T10:21:17.387Z,69.05
2022-10-13T10:22:17.392Z,68.66
2022-10-13T10:23:17.364Z,69.14
2022-10-13T10:24:17.382Z,69.14
2022-10-13T10:25:17.360Z,68.85
2022-10-13T10:26:22.232Z,68.76
2022-10-13T10:27:17.741Z,68.66
2022-10-13T10:28:17.443Z,68.57
2022-10-13T10:29:17.354Z,68.66
2022-10-13T10:30:17.362Z,69.14
2022-10-13T10:31:17.355Z,69.05
2022-10-13T10:32:17.714Z,69.14
2022-10-13T10:33:17.340Z,68.95
2022-10-13T10:34:17.341Z,68.95
2022-10-13T10:35:17.349Z,68.95
2022-10-13T10:36:17.339Z,68.66
2022-10-13T10:37:21.219Z,68.85
2022-10-13T10:38:17.334Z,68.85
2022-10-13T10:39:17.324Z,69.05
2022-10-13T10:40:17.358Z,69.05
2022-10-13T10:41:17.327Z,68.95
2022-10-13T10:42:17.703Z,68.95
2022-10-13T10:43:17.328Z,68.95
2022-10-13T10:44:17.321Z,68.95
2022-10-13T10:45:17.340Z,68.85
2022-10-13T10:46:17.326Z,69.05
2022-10-13T10:47:19.737Z,68.95
2022-10-13T10:48:17.314Z,69.05
2022-10-13T10:49:17.317Z,68.85
2022-10-13T10:50:17.299Z,68.95
2022-10-13T10:51:17.304Z,68.76
2022-10-13T10:52:58.042Z,68.95
2022-10-13T10:53:58.056Z,68.76
2022-10-13T10:54:58.037Z,68.95
2022-10-13T10:55:58.057Z,68.85
2022-10-13T10:56:58.032Z,68.85
2022-10-13T10:57:58.034Z,68.85
2022-10-13T10:58:58.020Z,69.05
2022-10-13T10:59:58.026Z,69.08
2022-10-13T11:00:58.023Z,68.85
2022-10-13T11:01:58.021Z,69.62
2022-10-13T11:02:58.014Z,68.85
2022-10-13T11:03:58.018Z,68.85
2022-10-13T11:05:02.109Z,68.85
2022-10-13T11:05:58.006Z,69.05
2022-10-13T11:06:58.009Z,68.76
2022-10-13T11:07:58.014Z,69.05
2022-10-13T11:08:57.998Z,69.14
2022-10-13T11:09:57.995Z,69.14
2022-10-13T11:10:58.002Z,69.14
2022-10-13T11:11:58.012Z,68.76
2022-10-13T11:12:57.999Z,68.66
2022-10-13T11:13:57.997Z,69.14
2022-10-13T11:14:57.986Z,68.57
2022-10-13T11:15:57.981Z,69.34
2022-10-13T11:16:57.989Z,68.66
2022-10-13T11:17:57.977Z,69.34
2022-10-13T11:18:57.971Z,68.57
2022-10-13T11:19:58.031Z,68.57
2022-10-13T11:20:57.979Z,69.43
2022-10-13T11:21:57.969Z,68.85
2022-10-13T11:22:57.974Z,68.60
2022-10-13T11:24:01.863Z,68.57
2022-10-13T11:24:57.957Z,69.27
2022-10-13T11:25:57.971Z,69.24
2022-10-13T11:26:57.964Z,69.08
2022-10-13T11:27:57.992Z,68.98
2022-10-13T11:28:57.950Z,68.98
2022-10-13T11:29:58.019Z,68.98
2022-10-13T11:30:57.948Z,68.89
2022-10-13T11:31:57.942Z,68.98
2022-10-13T11:32:57.957Z,68.98
2022-10-13T11:33:57.936Z,68.98
2022-10-13T11:34:57.999Z,68.79
2022-10-13T11:35:57.932Z,68.98
2022-10-13T11:36:57.930Z,69.08
2022-10-13T11:38:07.142Z,69.08
2022-10-13T11:38:57.930Z,68.85
2022-10-13T11:39:57.933Z,68.76
2022-10-13T11:40:57.916Z,68.89
2022-10-13T11:41:57.925Z,68.98
2022-10-13T11:42:59.262Z,69.18
2022-10-13T11:43:57.940Z,69.18
2022-10-13T11:44:57.916Z,68.66
2022-10-13T11:45:57.914Z,68.57
2022-10-13T11:46:57.909Z,69.14
2022-10-13T11:47:57.956Z,69.24
2022-10-13T11:48:57.906Z,69.18
2022-10-13T11:49:57.910Z,69.24
2022-10-13T11:50:57.901Z,68.98
2022-10-13T11:51:57.892Z,69.08
2022-10-13T11:52:57.901Z,69.18
2022-10-13T11:53:57.897Z,69.05
2022-10-13T11:54:57.895Z,68.89
2022-10-13T11:55:57.881Z,69.08
2022-10-13T11:56:57.877Z,68.85
2022-10-13T11:57:57.883Z,69.05
2022-10-13T11:58:57.880Z,68.79
2022-10-13T11:59:57.895Z,69.18
2022-10-13T12:00:57.873Z,69.08
2022-10-13T12:01:57.879Z,69.18
2022-10-13T12:02:57.914Z,69.24
2022-10-13T12:03:57.873Z,68.60
2022-10-13T12:04:57.869Z,68.57
2022-10-13T12:05:57.858Z,68.51
2022-10-13T12:06:57.860Z,69.37
2022-10-13T12:07:57.861Z,69.24
2022-10-13T12:08:57.860Z,69.37
2022-10-13T12:09:57.861Z,69.18
2022-10-13T12:10:57.852Z,68.60
2022-10-13T12:11:57.842Z,69.14
2022-10-13T12:12:57.840Z,69.18
2022-10-13T12:13:57.841Z,69.18
2022-10-13T12:14:59.987Z,69.37
2022-10-13T12:15:57.865Z,69.18
2022-10-13T12:16:57.867Z,69.14
2022-10-13T12:17:57.834Z,69.27
2022-10-13T12:18:57.836Z,69.18
2022-10-13T12:19:57.823Z,69.27
2022-10-13T12:20:57.824Z,69.27
2022-10-13T12:21:57.836Z,69.18
2022-10-13T12:22:57.826Z,68.60
2022-10-13T12:23:57.814Z,68.79
2022-10-13T12:24:57.810Z,68.60
2022-10-13T12:25:57.813Z,69.18
2022-10-13T12:26:57.812Z,68.76
2022-10-13T12:27:57.814Z,69.24
2022-10-13T12:28:57.854Z,69.18
2022-10-13T12:29:57.800Z,68.66
2022-10-13T12:30:57.811Z,68.98
2022-10-13T12:31:57.818Z,68.76
2022-10-13T12:32:57.804Z,68.98
2022-10-13T12:33:57.794Z,68.79
2022-10-13T12:34:57.794Z,68.98
2022-10-13T12:35:57.791Z,68.89
2022-10-13T12:36:57.799Z,68.79
2022-10-13T12:37:57.787Z,68.89
2022-10-13T12:38:57.781Z,69.08
2022-10-13T12:39:57.780Z,68.89
2022-10-13T12:40:57.778Z,68.98
2022-10-13T12:41:57.776Z,69.18
2022-10-13T12:42:57.770Z,69.08
2022-10-13T12:44:01.154Z,69.18
2022-10-13T12:44:57.773Z,69.18
2022-10-13T12:45:57.798Z,69.37
2022-10-13T12:46:57.759Z,68.47
2022-10-13T12:47:57.820Z,69.27
2022-10-13T12:48:57.769Z,69.37
2022-10-13T12:49:57.758Z,68.89
2022-10-13T12:50:57.755Z,69.18
2022-10-13T12:51:57.746Z,69.18
2022-10-13T12:52:57.757Z,68.89
2022-10-13T12:53:57.754Z,68.89
2022-10-13T12:54:57.748Z,68.89
2022-10-13T12:55:57.742Z,69.08